Ana Sayfa
METAR-TAF:

METAR-TAF

Havaalanları :

Kristianstad, İsveç

Enlem: 55-55N, Boylam: 014-05E, yükseklik: 23 m

Güncel hava durumu gözlemi

Rapor saat 20:20 UTC de 36 dakika önce yapıldı.
Rüzgar batıdan 12 kt
Sıcaklık 4°C
Nem 87%
Basınç 998 hPa
Görüş mesafesi 10 km veya daha fazla

METAR: ESMK 232020Z AUTO 28012KT 9999 FEW020/// 04/02 Q0998

Saat: 21:56 (20:56 UTC)

Tahmin

Rapor saat 17:20 UTC de 3 saat ve 36 dakika önce yapıldı.
Ayın 23'si saat 18 UTC'den ayın 23'si saat 21 UTC'ye kadar geçerli Tahmin
Rüzgar batıdan 12 kt
Görüş mesafesi 10 km veya daha fazla
2000 ft yükseklikte parçalı bulutlu
Geçici
ayın 23'si saat 18 UTC'den ayın 23'si saat 21 UTC'ye kadar
1200 ft yükseklikte parçalı çok bulutlu
2000 ft yükseklikte az bulutlu, Kümülonimbus.

TAF: ESMK 231720Z 2318/2321 27012KT 9999 SCT020 TEMPO 2318/2321 BKN012 FEW020CB

4.000'den fazla havaalanı için hava durumu gözlemleri ve tahminleri (METAR ve TAF raporları).

Kullanılabilir istasyonlar harita üzerinde sarı ve kırmızı noktalarla gösterilir.

İstasyonun adını görmek için fareyi noktanın üzerinde gezdirin.

Sonrasında hava gözlem ve tahminlerini görmek için tıklayın.

Haritayı değiştirmek için: yaklaştırmak için siyah artı işaretli yeşil düğmeye ve uzaklaştırmak için de eksi işaretli düğmeye hızla tıklayın; bitişik haritalar için yeşil okları kullanın.


METAR-TAF: